sensor_id;sensor_type;location;lat;lon;timestamp;pressure;altitude;pressure_sealevel;temperature;humidity
43153;BME280;28756;49.064;9.290;2022-07-23T00:02:01;98911.03;;;22.97;60.71
43153;BME280;28756;49.064;9.290;2022-07-23T00:04:26;98908.69;;;23.11;60.64
43153;BME280;28756;49.064;9.290;2022-07-23T00:06:52;98913.84;;;23.12;59.80
43153;BME280;28756;49.064;9.290;2022-07-23T00:09:18;98911.00;;;23.14;59.23
43153;BME280;28756;49.064;9.290;2022-07-23T00:11:43;98908.69;;;23.11;59.58
43153;BME280;28756;49.064;9.290;2022-07-23T00:14:09;98908.69;;;23.11;59.90
43153;BME280;28756;49.064;9.290;2022-07-23T00:16:35;98902.38;;;23.12;59.31
43153;BME280;28756;49.064;9.290;2022-07-23T00:19:00;98896.75;;;23.15;59.16
43153;BME280;28756;49.064;9.290;2022-07-23T00:21:27;98888.13;;;23.21;58.95
43153;BME280;28756;49.064;9.290;2022-07-23T00:23:53;98876.88;;;23.19;59.46
43153;BME280;28756;49.064;9.290;2022-07-23T00:26:19;98885.97;;;23.25;58.81
43153;BME280;28756;49.064;9.290;2022-07-23T00:28:45;98899.06;;;23.26;58.52
43153;BME280;28756;49.064;9.290;2022-07-23T00:31:10;98892.06;;;23.33;58.00
43153;BME280;28756;49.064;9.290;2022-07-23T00:33:36;98891.56;;;23.30;58.14
43153;BME280;28756;49.064;9.290;2022-07-23T00:36:02;98877.03;;;23.26;58.51
43153;BME280;28756;49.064;9.290;2022-07-23T00:38:28;98871.34;;;23.29;57.76
43153;BME280;28756;49.064;9.290;2022-07-23T00:40:54;98877.31;;;23.31;57.28
43153;BME280;28756;49.064;9.290;2022-07-23T00:43:21;98869.03;;;23.34;56.94
43153;BME280;28756;49.064;9.290;2022-07-23T00:45:47;98863.72;;;23.34;56.92
43153;BME280;28756;49.064;9.290;2022-07-23T00:48:13;98866.50;;;23.41;56.24
43153;BME280;28756;49.064;9.290;2022-07-23T00:50:39;98870.31;;;23.38;55.99
43153;BME280;28756;49.064;9.290;2022-07-23T00:53:05;98856.94;;;23.31;56.40
43153;BME280;28756;49.064;9.290;2022-07-23T00:55:31;98867.56;;;23.31;56.40
43153;BME280;28756;49.064;9.290;2022-07-23T00:57:57;98868.91;;;23.19;57.49
43153;BME280;28756;49.064;9.290;2022-07-23T01:00:23;98877.78;;;23.43;55.64
43153;BME280;28756;49.064;9.290;2022-07-23T01:02:49;98877.34;;;23.23;56.96
43153;BME280;28756;49.064;9.290;2022-07-23T01:05:15;98885.47;;;23.21;56.16
43153;BME280;28756;49.064;9.290;2022-07-23T01:07:43;98892.63;;;23.12;57.06
43153;BME280;28756;49.064;9.290;2022-07-23T01:10:09;98908.06;;;22.92;58.15
43153;BME280;28756;49.064;9.290;2022-07-23T01:12:54;98904.94;;;22.89;57.37
43153;BME280;28756;49.064;9.290;2022-07-23T01:15:20;98896.97;;;22.80;59.09
43153;BME280;28756;49.064;9.290;2022-07-23T01:17:46;98899.97;;;22.61;59.83
43153;BME280;28756;49.064;9.290;2022-07-23T01:20:11;98902.44;;;22.54;59.47
43153;BME280;28756;49.064;9.290;2022-07-23T01:22:37;98895.16;;;22.39;60.25
43153;BME280;28756;49.064;9.290;2022-07-23T01:25:03;98872.25;;;22.38;59.03
43153;BME280;28756;49.064;9.290;2022-07-23T01:27:29;98879.22;;;22.31;61.37
43153;BME280;28756;49.064;9.290;2022-07-23T01:29:56;98874.41;;;22.27;59.53
43153;BME280;28756;49.064;9.290;2022-07-23T01:32:22;98867.13;;;22.29;58.80
43153;BME280;28756;49.064;9.290;2022-07-23T01:34:48;98864.81;;;22.25;59.83
43153;BME280;28756;49.064;9.290;2022-07-23T01:37:14;98860.34;;;22.26;58.78
43153;BME280;28756;49.064;9.290;2022-07-23T01:39:39;98855.38;;;22.23;59.11
43153;BME280;28756;49.064;9.290;2022-07-23T01:42:05;98859.84;;;22.22;58.98
43153;BME280;28756;49.064;9.290;2022-07-23T01:44:31;98855.06;;;22.18;59.55
43153;BME280;28756;49.064;9.290;2022-07-23T01:46:57;98847.59;;;22.13;59.44
43153;BME280;28756;49.064;9.290;2022-07-23T01:49:23;98845.25;;;22.10;59.78
43153;BME280;28756;49.064;9.290;2022-07-23T01:51:48;98849.41;;;22.04;60.23
43153;BME280;28756;49.064;9.290;2022-07-23T01:54:32;98853.22;;;22.02;60.08
43153;BME280;28756;49.064;9.290;2022-07-23T01:56:59;98855.50;;;21.97;60.02
43153;BME280;28756;49.064;9.290;2022-07-23T01:59:26;98858.50;;;21.93;60.56
43153;BME280;28756;49.064;9.290;2022-07-23T02:01:52;98867.91;;;21.88;61.28
43153;BME280;28756;49.064;9.290;2022-07-23T02:04:20;98865.91;;;21.82;60.77
43153;BME280;28756;49.064;9.290;2022-07-23T02:06:47;98865.91;;;21.82;60.81
43153;BME280;28756;49.064;9.290;2022-07-23T02:09:12;98873.50;;;21.76;61.07
43153;BME280;28756;49.064;9.290;2022-07-23T02:11:38;98875.97;;;21.70;62.98
43153;BME280;28756;49.064;9.290;2022-07-23T02:14:04;98883.38;;;21.58;63.21
43153;BME280;28756;49.064;9.290;2022-07-23T02:16:30;98892.88;;;21.51;62.33
43153;BME280;28756;49.064;9.290;2022-07-23T02:18:56;98893.53;;;21.44;63.63
43153;BME280;28756;49.064;9.290;2022-07-23T02:21:21;98907.69;;;21.35;63.91
43153;BME280;28756;49.064;9.290;2022-07-23T02:23:47;98897.19;;;21.17;64.21
43153;BME280;28756;49.064;9.290;2022-07-23T02:26:13;98901.72;;;21.25;64.06
43153;BME280;28756;49.064;9.290;2022-07-23T02:28:39;98906.47;;;21.21;63.87
43153;BME280;28756;49.064;9.290;2022-07-23T02:31:05;98909.88;;;21.13;63.98
43153;BME280;28756;49.064;9.290;2022-07-23T02:33:32;98906.22;;;21.06;64.17
43153;BME280;28756;49.064;9.290;2022-07-23T02:35:58;98905.88;;;21.01;65.08
43153;BME280;28756;49.064;9.290;2022-07-23T02:38:24;98901.84;;;20.97;65.49
43153;BME280;28756;49.064;9.290;2022-07-23T02:40:50;98907.09;;;20.89;65.92
43153;BME280;28756;49.064;9.290;2022-07-23T02:43:15;98922.94;;;20.71;66.47
43153;BME280;28756;49.064;9.290;2022-07-23T02:45:41;98928.69;;;20.66;68.18
43153;BME280;28756;49.064;9.290;2022-07-23T02:48:07;98933.09;;;20.57;68.28
43153;BME280;28756;49.064;9.290;2022-07-23T02:50:33;98954.22;;;20.57;67.13
43153;BME280;28756;49.064;9.290;2022-07-23T02:52:58;98951.84;;;20.72;66.98
43153;BME280;28756;49.064;9.290;2022-07-23T02:55:24;98955.63;;;20.70;65.94
43153;BME280;28756;49.064;9.290;2022-07-23T02:57:50;98955.09;;;20.66;66.25
43153;BME280;28756;49.064;9.290;2022-07-23T03:00:16;98957.13;;;20.72;65.37
43153;BME280;28756;49.064;9.290;2022-07-23T03:02:42;98957.69;;;20.76;65.86
43153;BME280;28756;49.064;9.290;2022-07-23T03:05:08;98970.66;;;20.69;66.69
43153;BME280;28756;49.064;9.290;2022-07-23T03:07:34;98969.75;;;20.60;67.78
43153;BME280;28756;49.064;9.290;2022-07-23T03:10:12;98981.84;;;20.63;66.93
43153;BME280;28756;49.064;9.290;2022-07-23T03:12:37;98972.09;;;20.63;66.74
43153;BME280;28756;49.064;9.290;2022-07-23T03:15:04;98971.84;;;20.57;67.43
43153;BME280;28756;49.064;9.290;2022-07-23T03:17:30;98971.50;;;20.51;67.75
43153;BME280;28756;49.064;9.290;2022-07-23T03:19:56;98974.28;;;20.50;68.05
43153;BME280;28756;49.064;9.290;2022-07-23T03:22:22;98962.22;;;20.47;67.61
43153;BME280;28756;49.064;9.290;2022-07-23T03:24:47;98962.34;;;20.46;67.73
43153;BME280;28756;49.064;9.290;2022-07-23T03:27:22;98961.00;;;20.42;67.92
43153;BME280;28756;49.064;9.290;2022-07-23T03:29:50;98965.75;;;20.38;68.37
43153;BME280;28756;49.064;9.290;2022-07-23T03:32:16;98962.44;;;20.36;68.44
43153;BME280;28756;49.064;9.290;2022-07-23T03:34:41;98964.25;;;20.35;68.21
43153;BME280;28756;49.064;9.290;2022-07-23T03:37:07;98970.97;;;20.48;67.88
43153;BME280;28756;49.064;9.290;2022-07-23T03:39:33;98960.69;;;20.45;67.71
43153;BME280;28756;49.064;9.290;2022-07-23T03:41:59;98972.09;;;20.45;68.03
43153;BME280;28756;49.064;9.290;2022-07-23T03:44:24;98974.91;;;20.44;68.61
43153;BME280;28756;49.064;9.290;2022-07-23T03:46:50;98961.69;;;20.44;69.07
43153;BME280;28756;49.064;9.290;2022-07-23T03:49:16;98976.16;;;20.40;69.24
43153;BME280;28756;49.064;9.290;2022-07-23T03:51:42;98996.56;;;20.47;69.09
43153;BME280;28756;49.064;9.290;2022-07-23T03:54:08;98992.53;;;20.43;69.69
43153;BME280;28756;49.064;9.290;2022-07-23T03:56:34;98984.91;;;20.40;69.28
43153;BME280;28756;49.064;9.290;2022-07-23T03:58:59;98992.44;;;20.35;69.22
43153;BME280;28756;49.064;9.290;2022-07-23T04:01:25;98990.94;;;20.32;70.06
43153;BME280;28756;49.064;9.290;2022-07-23T04:03:51;98993.06;;;20.29;68.90
43153;BME280;28756;49.064;9.290;2022-07-23T04:06:17;98992.06;;;20.30;69.45
43153;BME280;28756;49.064;9.290;2022-07-23T04:08:43;98985.94;;;20.29;68.68
43153;BME280;28756;49.064;9.290;2022-07-23T04:11:08;99002.63;;;20.30;69.61
43153;BME280;28756;49.064;9.290;2022-07-23T04:13:34;99002.75;;;20.28;69.89
43153;BME280;28756;49.064;9.290;2022-07-23T04:16:00;98995.31;;;20.24;69.19
43153;BME280;28756;49.064;9.290;2022-07-23T04:18:26;98991.81;;;20.23;70.57
43153;BME280;28756;49.064;9.290;2022-07-23T04:20:52;98983.22;;;20.21;70.46
43153;BME280;28756;49.064;9.290;2022-07-23T04:23:18;98995.59;;;20.20;70.06
43153;BME280;28756;49.064;9.290;2022-07-23T04:25:44;98992.53;;;20.25;68.67
43153;BME280;28756;49.064;9.290;2022-07-23T04:28:10;99004.00;;;20.34;69.07
43153;BME280;28756;49.064;9.290;2022-07-23T04:30:36;99003.63;;;20.47;67.92
43153;BME280;28756;49.064;9.290;2022-07-23T04:33:02;98997.09;;;20.51;68.94
43153;BME280;28756;49.064;9.290;2022-07-23T04:35:31;99006.19;;;20.57;67.82
43153;BME280;28756;49.064;9.290;2022-07-23T04:38:00;99007.03;;;20.57;68.86
43153;BME280;28756;49.064;9.290;2022-07-23T04:40:26;99011.56;;;20.65;67.56
43153;BME280;28756;49.064;9.290;2022-07-23T04:42:52;99018.06;;;20.71;67.89
43153;BME280;28756;49.064;9.290;2022-07-23T04:45:18;99018.91;;;20.71;68.79
43153;BME280;28756;49.064;9.290;2022-07-23T04:47:47;99022.94;;;20.75;68.04
43153;BME280;28756;49.064;9.290;2022-07-23T04:50:13;99015.25;;;20.82;69.00
43153;BME280;28756;49.064;9.290;2022-07-23T04:52:42;99029.25;;;20.82;69.58
43153;BME280;28756;49.064;9.290;2022-07-23T04:55:08;99034.88;;;20.79;69.75
43153;BME280;28756;49.064;9.290;2022-07-23T04:57:34;99039.16;;;20.80;68.70
43153;BME280;28756;49.064;9.290;2022-07-23T05:00:00;99044.66;;;20.69;69.81
43153;BME280;28756;49.064;9.290;2022-07-23T05:02:26;99048.25;;;20.68;69.88
43153;BME280;28756;49.064;9.290;2022-07-23T05:04:51;99055.06;;;20.71;69.26
43153;BME280;28756;49.064;9.290;2022-07-23T05:07:17;99056.72;;;20.72;68.76
43153;BME280;28756;49.064;9.290;2022-07-23T05:09:43;99055.44;;;20.76;67.98
43153;BME280;28756;49.064;9.290;2022-07-23T05:12:08;99056.13;;;20.78;67.80
43153;BME280;28756;49.064;9.290;2022-07-23T05:14:34;99056.31;;;20.76;68.00
43153;BME280;28756;49.064;9.290;2022-07-23T05:17:00;99047.41;;;20.77;68.50
43153;BME280;28756;49.064;9.290;2022-07-23T05:19:26;99045.19;;;20.73;68.35
43153;BME280;28756;49.064;9.290;2022-07-23T05:21:52;99033.09;;;20.70;69.63
43153;BME280;28756;49.064;9.290;2022-07-23T05:24:17;99029.59;;;20.70;69.11
43153;BME280;28756;49.064;9.290;2022-07-23T05:26:43;99016.13;;;20.73;69.76
43153;BME280;28756;49.064;9.290;2022-07-23T05:29:09;99022.25;;;20.73;71.38
43153;BME280;28756;49.064;9.290;2022-07-23T05:31:34;99039.59;;;20.76;72.25
43153;BME280;28756;49.064;9.290;2022-07-23T05:34:00;99051.59;;;20.70;71.92
43153;BME280;28756;49.064;9.290;2022-07-23T05:36:26;99056.63;;;20.63;71.62
43153;BME280;28756;49.064;9.290;2022-07-23T05:38:52;99062.06;;;20.62;71.71
43153;BME280;28756;49.064;9.290;2022-07-23T05:41:17;99066.22;;;20.64;71.55
43153;BME280;28756;49.064;9.290;2022-07-23T05:43:44;99070.53;;;20.65;71.27
43153;BME280;28756;49.064;9.290;2022-07-23T05:46:10;99071.63;;;20.73;71.21
43153;BME280;28756;49.064;9.290;2022-07-23T05:48:35;99065.56;;;20.80;71.97
43153;BME280;28756;49.064;9.290;2022-07-23T05:51:01;99074.44;;;20.89;71.35
43153;BME280;28756;49.064;9.290;2022-07-23T05:53:28;99072.94;;;20.87;70.93
43153;BME280;28756;49.064;9.290;2022-07-23T05:55:55;99088.78;;;20.87;70.26
43153;BME280;28756;49.064;9.290;2022-07-23T05:58:20;99115.50;;;20.83;70.87
43153;BME280;28756;49.064;9.290;2022-07-23T06:00:47;99115.25;;;20.77;71.08
43153;BME280;28756;49.064;9.290;2022-07-23T06:03:12;99135.03;;;20.73;70.85
43153;BME280;28756;49.064;9.290;2022-07-23T06:05:38;99126.72;;;20.67;71.19
43153;BME280;28756;49.064;9.290;2022-07-23T06:08:04;99114.06;;;20.61;71.43
43153;BME280;28756;49.064;9.290;2022-07-23T06:10:30;99116.03;;;20.59;73.11
43153;BME280;28756;49.064;9.290;2022-07-23T06:12:55;99116.41;;;20.36;75.97
43153;BME280;28756;49.064;9.290;2022-07-23T06:15:21;99115.13;;;20.13;76.73
43153;BME280;28756;49.064;9.290;2022-07-23T06:17:47;99111.69;;;20.02;77.96
43153;BME280;28756;49.064;9.290;2022-07-23T06:20:12;99101.41;;;19.99;79.42
43153;BME280;28756;49.064;9.290;2022-07-23T06:22:38;99105.03;;;19.98;79.45
43153;BME280;28756;49.064;9.290;2022-07-23T06:25:06;99103.97;;;19.71;80.44
43153;BME280;28756;49.064;9.290;2022-07-23T06:27:32;99091.88;;;19.79;81.50
43153;BME280;28756;49.064;9.290;2022-07-23T06:29:57;99091.19;;;19.77;81.00
43153;BME280;28756;49.064;9.290;2022-07-23T06:32:23;99083.72;;;19.62;80.50
43153;BME280;28756;49.064;9.290;2022-07-23T06:34:49;99083.56;;;19.64;82.82
43153;BME280;28756;49.064;9.290;2022-07-23T06:37:15;99072.59;;;19.68;83.28
43153;BME280;28756;49.064;9.290;2022-07-23T06:39:41;99064.09;;;19.75;81.95
43153;BME280;28756;49.064;9.290;2022-07-23T06:42:07;99072.44;;;19.90;81.84
43153;BME280;28756;49.064;9.290;2022-07-23T06:44:32;99062.25;;;20.04;81.08
43153;BME280;28756;49.064;9.290;2022-07-23T06:46:58;99065.53;;;20.07;79.65
43153;BME280;28756;49.064;9.290;2022-07-23T06:49:24;99060.63;;;20.22;80.30
43153;BME280;28756;49.064;9.290;2022-07-23T06:51:49;99077.09;;;20.33;79.75
43153;BME280;28756;49.064;9.290;2022-07-23T06:54:15;99084.06;;;20.34;78.32
43153;BME280;28756;49.064;9.290;2022-07-23T06:56:41;99111.00;;;20.38;80.49
43153;BME280;28756;49.064;9.290;2022-07-23T06:59:08;99131.50;;;20.16;81.74
43153;BME280;28756;49.064;9.290;2022-07-23T07:01:34;99145.91;;;19.84;84.48
43153;BME280;28756;49.064;9.290;2022-07-23T07:03:59;99181.16;;;19.54;86.80
43153;BME280;28756;49.064;9.290;2022-07-23T07:06:25;99205.00;;;19.13;89.31
43153;BME280;28756;49.064;9.290;2022-07-23T07:08:51;99214.69;;;19.03;90.24
43153;BME280;28756;49.064;9.290;2022-07-23T07:11:16;99202.84;;;18.87;91.25
43153;BME280;28756;49.064;9.290;2022-07-23T07:13:42;99178.97;;;18.89;91.42
43153;BME280;28756;49.064;9.290;2022-07-23T07:16:08;99187.78;;;18.99;91.53
43153;BME280;28756;49.064;9.290;2022-07-23T07:18:34;99200.16;;;19.08;94.19
43153;BME280;28756;49.064;9.290;2022-07-23T07:20:59;99211.91;;;18.94;94.64
43153;BME280;28756;49.064;9.290;2022-07-23T07:23:25;99223.81;;;18.99;94.46
43153;BME280;28756;49.064;9.290;2022-07-23T07:25:51;99219.03;;;18.83;94.46
43153;BME280;28756;49.064;9.290;2022-07-23T07:28:17;99208.09;;;18.46;92.20
43153;BME280;28756;49.064;9.290;2022-07-23T07:30:42;99191.63;;;18.54;92.18
43153;BME280;28756;49.064;9.290;2022-07-23T07:33:08;99181.88;;;18.45;93.05
43153;BME280;28756;49.064;9.290;2022-07-23T07:35:34;99162.50;;;18.56;92.96
43153;BME280;28756;49.064;9.290;2022-07-23T07:38:00;99160.91;;;18.65;93.68
43153;BME280;28756;49.064;9.290;2022-07-23T07:40:26;99167.72;;;18.77;94.21
43153;BME280;28756;49.064;9.290;2022-07-23T07:42:53;99167.06;;;18.85;94.13
43153;BME280;28756;49.064;9.290;2022-07-23T07:45:21;99160.31;;;18.92;92.44
43153;BME280;28756;49.064;9.290;2022-07-23T07:47:47;99166.41;;;19.02;91.33
43153;BME280;28756;49.064;9.290;2022-07-23T07:50:13;99169.78;;;19.24;91.93
43153;BME280;28756;49.064;9.290;2022-07-23T07:52:39;99157.84;;;19.49;92.55
43153;BME280;28756;49.064;9.290;2022-07-23T07:55:07;99147.88;;;19.43;90.36
43153;BME280;28756;49.064;9.290;2022-07-23T07:57:34;99138.81;;;19.75;89.34
43153;BME280;28756;49.064;9.290;2022-07-23T08:00:00;99137.28;;;19.92;88.36
43153;BME280;28756;49.064;9.290;2022-07-23T08:02:26;99147.81;;;20.02;87.18
43153;BME280;28756;49.064;9.290;2022-07-23T08:04:52;99143.22;;;20.04;85.89
43153;BME280;28756;49.064;9.290;2022-07-23T08:07:19;99148.69;;;19.93;88.57
43153;BME280;28756;49.064;9.290;2022-07-23T08:09:44;99149.19;;;20.06;84.53
43153;BME280;28756;49.064;9.290;2022-07-23T08:12:10;99152.91;;;20.13;85.37
43153;BME280;28756;49.064;9.290;2022-07-23T08:14:36;99158.22;;;19.94;85.32
43153;BME280;28756;49.064;9.290;2022-07-23T08:17:02;99160.84;;;20.13;87.01
43153;BME280;28756;49.064;9.290;2022-07-23T08:19:30;99165.88;;;19.97;84.19
43153;BME280;28756;49.064;9.290;2022-07-23T08:21:57;99165.00;;;20.16;85.60
43153;BME280;28756;49.064;9.290;2022-07-23T08:24:25;99168.28;;;20.28;84.63
43153;BME280;28756;49.064;9.290;2022-07-23T08:26:51;99169.34;;;20.45;86.50
43153;BME280;28756;49.064;9.290;2022-07-23T08:29:17;99176.97;;;20.48;87.89
43153;BME280;28756;49.064;9.290;2022-07-23T08:31:43;99182.31;;;20.38;89.39
43153;BME280;28756;49.064;9.290;2022-07-23T08:34:08;99186.38;;;20.23;89.15
43153;BME280;28756;49.064;9.290;2022-07-23T08:36:34;99196.84;;;19.95;92.08
43153;BME280;28756;49.064;9.290;2022-07-23T08:39:00;99203.78;;;19.96;92.67
43153;BME280;28756;49.064;9.290;2022-07-23T08:41:28;99193.09;;;20.07;92.37
43153;BME280;28756;49.064;9.290;2022-07-23T08:43:53;99197.09;;;19.82;91.07
43153;BME280;28756;49.064;9.290;2022-07-23T08:46:20;99196.19;;;19.93;91.82
43153;BME280;28756;49.064;9.290;2022-07-23T08:48:48;99195.31;;;20.02;92.84
43153;BME280;28756;49.064;9.290;2022-07-23T08:51:15;99203.78;;;19.96;92.59
43153;BME280;28756;49.064;9.290;2022-07-23T08:53:41;99208.78;;;19.89;94.62
43153;BME280;28756;49.064;9.290;2022-07-23T08:56:08;99207.00;;;19.90;95.24
43153;BME280;28756;49.064;9.290;2022-07-23T08:58:34;99198.94;;;19.91;93.85
43153;BME280;28756;49.064;9.290;2022-07-23T09:01:01;99184.94;;;19.91;92.24
43153;BME280;28756;49.064;9.290;2022-07-23T09:03:33;99187.38;;;20.02;91.60
43153;BME280;28756;49.064;9.290;2022-07-23T09:05:59;99190.03;;;20.12;91.40
43153;BME280;28756;49.064;9.290;2022-07-23T09:08:46;99191.19;;;20.37;92.91
43153;BME280;28756;49.064;9.290;2022-07-23T09:11:16;99189.47;;;20.56;93.72
43153;BME280;28756;49.064;9.290;2022-07-23T09:13:52;99188.25;;;20.40;89.76
43153;BME280;28756;49.064;9.290;2022-07-23T09:16:30;99186.66;;;20.95;92.93
43153;BME280;28756;49.064;9.290;2022-07-23T09:18:59;99184.66;;;21.25;91.60
43153;BME280;28756;49.064;9.290;2022-07-23T09:21:34;99189.97;;;20.69;92.23
43153;BME280;28756;49.064;9.290;2022-07-23T09:24:06;99184.81;;;21.41;92.71
43153;BME280;28756;49.064;9.290;2022-07-23T09:29:05;99189.81;;;22.07;88.08
43153;BME280;28756;49.064;9.290;2022-07-23T09:36:48;99159.00;;;25.51;69.26
43153;BME280;28756;49.064;9.290;2022-07-23T09:39:21;99177.38;;;23.03;74.01
43153;BME280;28756;49.064;9.290;2022-07-23T09:41:49;99163.16;;;24.59;74.93
43153;BME280;28756;49.064;9.290;2022-07-23T09:44:19;99162.59;;;24.81;71.23
43153;BME280;28756;49.064;9.290;2022-07-23T09:46:48;99167.91;;;24.41;74.14
43153;BME280;28756;49.064;9.290;2022-07-23T09:49:17;99173.94;;;24.74;68.60
43153;BME280;28756;49.064;9.290;2022-07-23T09:51:58;99177.44;;;23.28;71.33
43153;BME280;28756;49.064;9.290;2022-07-23T09:54:38;99179.75;;;24.22;71.19
43153;BME280;28756;49.064;9.290;2022-07-23T09:57:11;99174.41;;;25.33;67.22
43153;BME280;28756;49.064;9.290;2022-07-23T09:59:42;99159.19;;;26.03;66.81
43153;BME280;28756;49.064;9.290;2022-07-23T10:02:11;99164.16;;;26.66;64.80
43153;BME280;28756;49.064;9.290;2022-07-23T10:04:38;99162.09;;;26.46;64.70
43153;BME280;28756;49.064;9.290;2022-07-23T10:07:07;99168.25;;;24.86;67.57
43153;BME280;28756;49.064;9.290;2022-07-23T10:09:38;99165.91;;;24.35;69.54
43153;BME280;28756;49.064;9.290;2022-07-23T10:12:13;99165.97;;;24.18;65.21
43153;BME280;28756;49.064;9.290;2022-07-23T10:14:46;99168.34;;;25.70;64.25
43153;BME280;28756;49.064;9.290;2022-07-23T10:17:13;99171.56;;;26.19;66.97
43153;BME280;28756;49.064;9.290;2022-07-23T10:19:39;99164.53;;;26.03;62.49
43153;BME280;28756;49.064;9.290;2022-07-23T10:22:10;99152.97;;;26.56;62.20
43153;BME280;28756;49.064;9.290;2022-07-23T10:25:18;99147.38;;;27.24;60.66
43153;BME280;28756;49.064;9.290;2022-07-23T10:31:09;99146.75;;;27.65;54.75
43153;BME280;28756;49.064;9.290;2022-07-23T10:34:25;99151.34;;;27.78;56.74
43153;BME280;28756;49.064;9.290;2022-07-23T10:37:02;99159.16;;;26.11;56.21
43153;BME280;28756;49.064;9.290;2022-07-23T10:39:33;99149.09;;;27.32;57.61
43153;BME280;28756;49.064;9.290;2022-07-23T10:42:20;99140.06;;;27.54;57.62
43153;BME280;28756;49.064;9.290;2022-07-23T10:44:47;99139.75;;;27.64;56.68
43153;BME280;28756;49.064;9.290;2022-07-23T10:47:27;99156.56;;;26.63;57.07
43153;BME280;28756;49.064;9.290;2022-07-23T10:50:28;99145.69;;;27.38;55.70
43153;BME280;28756;49.064;9.290;2022-07-23T10:53:17;99148.97;;;27.40;56.09
43153;BME280;28756;49.064;9.290;2022-07-23T10:55:51;99146.41;;;27.10;58.79
43153;BME280;28756;49.064;9.290;2022-07-23T10:58:45;99137.47;;;27.61;56.20
43153;BME280;28756;49.064;9.290;2022-07-23T11:01:38;99141.22;;;27.67;54.34
43153;BME280;28756;49.064;9.290;2022-07-23T11:04:05;99137.66;;;27.60;56.53
43153;BME280;28756;49.064;9.290;2022-07-23T11:09:41;99148.44;;;27.08;53.80
43153;BME280;28756;49.064;9.290;2022-07-23T11:15:05;99142.19;;;27.16;50.25
43153;BME280;28756;49.064;9.290;2022-07-23T11:20:22;99142.75;;;27.11;50.56
43153;BME280;28756;49.064;9.290;2022-07-23T11:22:54;99133.19;;;27.67;50.86
43153;BME280;28756;49.064;9.290;2022-07-23T11:27:51;99132.25;;;27.31;53.11
43153;BME280;28756;49.064;9.290;2022-07-23T11:33:18;99131.56;;;26.34;53.45
43153;BME280;28756;49.064;9.290;2022-07-23T11:35:49;99126.47;;;27.27;53.10
43153;BME280;28756;49.064;9.290;2022-07-23T11:38:21;99124.22;;;26.88;53.09
43153;BME280;28756;49.064;9.290;2022-07-23T11:40:51;99124.38;;;26.49;56.47
43153;BME280;28756;49.064;9.290;2022-07-23T11:43:18;99109.59;;;26.99;54.81
43153;BME280;28756;49.064;9.290;2022-07-23T11:45:48;99114.81;;;27.35;53.05
43153;BME280;28756;49.064;9.290;2022-07-23T11:48:25;99107.84;;;27.84;52.45
43153;BME280;28756;49.064;9.290;2022-07-23T11:50:53;99105.31;;;27.48;54.85
43153;BME280;28756;49.064;9.290;2022-07-23T11:53:28;99108.47;;;28.21;52.41
43153;BME280;28756;49.064;9.290;2022-07-23T11:56:06;99097.44;;;28.03;50.00
43153;BME280;28756;49.064;9.290;2022-07-23T11:58:32;99096.59;;;27.61;49.67
43153;BME280;28756;49.064;9.290;2022-07-23T12:00:58;99102.28;;;27.86;51.35
43153;BME280;28756;49.064;9.290;2022-07-23T12:03:24;99098.44;;;27.38;49.95
43153;BME280;28756;49.064;9.290;2022-07-23T12:05:56;99097.00;;;27.93;51.79
43153;BME280;28756;49.064;9.290;2022-07-23T12:08:23;99090.94;;;27.49;51.23
43153;BME280;28756;49.064;9.290;2022-07-23T12:10:49;99094.63;;;27.76;50.19
43153;BME280;28756;49.064;9.290;2022-07-23T12:13:18;99096.38;;;26.75;52.02
43153;BME280;28756;49.064;9.290;2022-07-23T12:15:48;99096.44;;;26.45;52.08
43153;BME280;28756;49.064;9.290;2022-07-23T12:18:21;99095.34;;;26.55;53.21
43153;BME280;28756;49.064;9.290;2022-07-23T12:20:54;99086.69;;;26.89;52.99
43153;BME280;28756;49.064;9.290;2022-07-23T12:23:24;99095.72;;;26.37;53.33
43153;BME280;28756;49.064;9.290;2022-07-23T12:25:52;99088.13;;;26.70;53.27
43153;BME280;28756;49.064;9.290;2022-07-23T12:28:22;99083.84;;;26.91;51.80
43153;BME280;28756;49.064;9.290;2022-07-23T12:30:55;99073.94;;;26.85;49.09
43153;BME280;28756;49.064;9.290;2022-07-23T12:33:24;99081.94;;;26.70;48.52
43153;BME280;28756;49.064;9.290;2022-07-23T12:35:51;99087.28;;;27.06;50.58
43153;BME280;28756;49.064;9.290;2022-07-23T12:38:21;99082.69;;;27.43;46.63
43153;BME280;28756;49.064;9.290;2022-07-23T12:40:53;99075.38;;;27.59;49.13
43153;BME280;28756;49.064;9.290;2022-07-23T12:43:23;99079.19;;;27.21;48.07
43153;BME280;28756;49.064;9.290;2022-07-23T12:45:51;99080.41;;;26.97;49.21
43153;BME280;28756;49.064;9.290;2022-07-23T12:48:29;99086.41;;;27.42;49.68
43153;BME280;28756;49.064;9.290;2022-07-23T12:51:01;99089.97;;;27.56;47.94
43153;BME280;28756;49.064;9.290;2022-07-23T12:53:41;99086.06;;;27.87;47.42
43153;BME280;28756;49.064;9.290;2022-07-23T12:56:11;99092.19;;;27.81;46.46
43153;BME280;28756;49.064;9.290;2022-07-23T12:58:54;99091.25;;;27.96;47.41
43153;BME280;28756;49.064;9.290;2022-07-23T13:09:13;99090.84;;;28.34;43.86
43153;BME280;28756;49.064;9.290;2022-07-23T13:11:40;99093.34;;;28.35;46.16
43153;BME280;28756;49.064;9.290;2022-07-23T13:14:06;99091.38;;;28.64;45.87
43153;BME280;28756;49.064;9.290;2022-07-23T13:16:33;99091.25;;;28.37;46.77
43153;BME280;28756;49.064;9.290;2022-07-23T13:19:00;99100.63;;;28.13;47.54
43153;BME280;28756;49.064;9.290;2022-07-23T13:21:28;99095.19;;;28.00;45.97
43153;BME280;28756;49.064;9.290;2022-07-23T13:23:55;99099.41;;;27.87;47.27
43153;BME280;28756;49.064;9.290;2022-07-23T13:26:22;99092.53;;;28.00;46.92
43153;BME280;28756;49.064;9.290;2022-07-23T13:28:47;99091.50;;;28.01;44.44
43153;BME280;28756;49.064;9.290;2022-07-23T13:31:14;99094.13;;;28.29;44.19
43153;BME280;28756;49.064;9.290;2022-07-23T13:33:40;99093.47;;;28.20;44.54
43153;BME280;28756;49.064;9.290;2022-07-23T13:36:06;99092.81;;;27.83;43.76
43153;BME280;28756;49.064;9.290;2022-07-23T13:38:32;99092.09;;;28.38;44.60